Pagrindinis puslapis
METAR-TAF:

METAR-TAF

Oro uostai :

Hemphill County Airport

Canadian, Teksasas, Jungtinės Amerikos Valstijos

platuma: 35-54N, ilguma: 100-24W, Aukštis: 730 m

Dabartinis oras

Ataskaita buvo paskelbta 27 minutes, ne 04:15 UTC
Vėjas 14 kt iš Pietų su gūsio iki 18 kt
Temperatūra 15°C
Drėgmė 67%
Slėgis 1022 hPa
Matomumas: 16.1 km
Giedras dangus

METAR: KHHF 140415Z AUTO 17014G18KT 10SM CLR 15/09 A3018 RMK AO2 T01510085

Laikas: 23:42 (04:42 UTC)


TAF: trūkstamas

Orai ataskaitas ir orų prognozės (METAR, TAF).

turimą stotys yra geltonos ir raudonos taškus žemėlapyje.

Perkelti pele per norėdami pamatyti stoties vardą.

Tada spustelėkite, norėdami matyti oro stebėjimo ir prognozės.

Norėdami pakeisti žemėlapį: spustelėkite ant žalios mygtukų su juodo kryžiaus žemyn,; žalią mygtuką su brūkšneliu, jei norite nutolinti; arba žalių rodyklių gretimoms žemėlapius.


METAR-TAF: